sensor_id;sensor_type;location;lat;lon;timestamp;temperature;humidity
27567;DHT22;15006;48.584;9.186;2022-08-19T00:02:30;17.40;81.30
27567;DHT22;15006;48.584;9.186;2022-08-19T00:05:32;17.40;82.20
27567;DHT22;15006;48.584;9.186;2022-08-19T00:08:14;17.30;81.50
27567;DHT22;15006;48.584;9.186;2022-08-19T00:11:23;17.30;82.60
27567;DHT22;15006;48.584;9.186;2022-08-19T00:14:15;17.20;82.30
27567;DHT22;15006;48.584;9.186;2022-08-19T00:17:00;17.20;83.70
27567;DHT22;15006;48.584;9.186;2022-08-19T00:19:38;17.10;84.10
27567;DHT22;15006;48.584;9.186;2022-08-19T00:22:06;17.00;84.80
27567;DHT22;15006;48.584;9.186;2022-08-19T00:24:34;17.00;84.70
27567;DHT22;15006;48.584;9.186;2022-08-19T00:27:02;17.00;85.20
27567;DHT22;15006;48.584;9.186;2022-08-19T00:29:37;17.00;85.30
27567;DHT22;15006;48.584;9.186;2022-08-19T00:32:04;17.00;86.10
27567;DHT22;15006;48.584;9.186;2022-08-19T00:34:31;17.00;85.40
27567;DHT22;15006;48.584;9.186;2022-08-19T00:36:58;17.00;85.60
27567;DHT22;15006;48.584;9.186;2022-08-19T00:39:24;16.90;86.00
27567;DHT22;15006;48.584;9.186;2022-08-19T00:41:50;16.90;86.40
27567;DHT22;15006;48.584;9.186;2022-08-19T00:44:23;16.90;86.50
27567;DHT22;15006;48.584;9.186;2022-08-19T00:46:53;16.80;87.60
27567;DHT22;15006;48.584;9.186;2022-08-19T00:49:36;16.80;86.70
27567;DHT22;15006;48.584;9.186;2022-08-19T00:52:12;16.80;86.50
27567;DHT22;15006;48.584;9.186;2022-08-19T00:54:42;16.70;86.10
27567;DHT22;15006;48.584;9.186;2022-08-19T00:57:12;16.70;86.50
27567;DHT22;15006;48.584;9.186;2022-08-19T00:59:45;16.60;86.90
27567;DHT22;15006;48.584;9.186;2022-08-19T01:02:16;16.60;87.80
27567;DHT22;15006;48.584;9.186;2022-08-19T01:04:44;16.60;88.20
27567;DHT22;15006;48.584;9.186;2022-08-19T01:07:12;16.50;88.60
27567;DHT22;15006;48.584;9.186;2022-08-19T01:09:40;16.50;89.70
27567;DHT22;15006;48.584;9.186;2022-08-19T01:12:07;16.50;90.00
27567;DHT22;15006;48.584;9.186;2022-08-19T01:14:36;16.50;90.20
27567;DHT22;15006;48.584;9.186;2022-08-19T01:17:03;16.40;90.30
27567;DHT22;15006;48.584;9.186;2022-08-19T01:19:41;16.30;90.50
27567;DHT22;15006;48.584;9.186;2022-08-19T01:22:27;16.30;91.60
27567;DHT22;15006;48.584;9.186;2022-08-19T01:24:56;16.20;92.10
27567;DHT22;15006;48.584;9.186;2022-08-19T01:27:22;16.20;91.60
27567;DHT22;15006;48.584;9.186;2022-08-19T01:29:49;16.10;91.70
27567;DHT22;15006;48.584;9.186;2022-08-19T01:32:16;16.10;92.00
27567;DHT22;15006;48.584;9.186;2022-08-19T01:34:42;16.10;92.40
27567;DHT22;15006;48.584;9.186;2022-08-19T01:37:14;16.00;92.40
27567;DHT22;15006;48.584;9.186;2022-08-19T01:39:41;16.00;92.70
27567;DHT22;15006;48.584;9.186;2022-08-19T01:42:09;16.00;92.90
27567;DHT22;15006;48.584;9.186;2022-08-19T01:44:39;15.90;93.30
27567;DHT22;15006;48.584;9.186;2022-08-19T01:47:06;15.90;93.40
27567;DHT22;15006;48.584;9.186;2022-08-19T01:49:36;15.80;93.60
27567;DHT22;15006;48.584;9.186;2022-08-19T01:52:03;15.80;94.00
27567;DHT22;15006;48.584;9.186;2022-08-19T01:54:30;15.80;94.50
27567;DHT22;15006;48.584;9.186;2022-08-19T01:57:02;15.80;94.50
27567;DHT22;15006;48.584;9.186;2022-08-19T01:59:32;15.80;95.10
27567;DHT22;15006;48.584;9.186;2022-08-19T02:01:58;15.80;95.10
27567;DHT22;15006;48.584;9.186;2022-08-19T02:04:25;15.80;95.20
27567;DHT22;15006;48.584;9.186;2022-08-19T02:06:52;15.80;95.10
27567;DHT22;15006;48.584;9.186;2022-08-19T02:09:19;15.70;95.00
27567;DHT22;15006;48.584;9.186;2022-08-19T02:11:46;15.70;95.10
27567;DHT22;15006;48.584;9.186;2022-08-19T02:14:12;15.70;95.00
27567;DHT22;15006;48.584;9.186;2022-08-19T02:16:38;15.70;95.10
27567;DHT22;15006;48.584;9.186;2022-08-19T02:19:05;15.70;95.20
27567;DHT22;15006;48.584;9.186;2022-08-19T02:21:32;15.70;95.30
27567;DHT22;15006;48.584;9.186;2022-08-19T02:23:58;15.70;95.40
27567;DHT22;15006;48.584;9.186;2022-08-19T02:26:25;15.70;95.60
27567;DHT22;15006;48.584;9.186;2022-08-19T02:28:52;15.60;95.70
27567;DHT22;15006;48.584;9.186;2022-08-19T02:31:22;15.70;95.70
27567;DHT22;15006;48.584;9.186;2022-08-19T02:33:49;15.60;96.00
27567;DHT22;15006;48.584;9.186;2022-08-19T02:36:16;15.70;95.90
27567;DHT22;15006;48.584;9.186;2022-08-19T02:38:45;15.70;96.10
27567;DHT22;15006;48.584;9.186;2022-08-19T02:41:19;15.70;96.10
27567;DHT22;15006;48.584;9.186;2022-08-19T02:43:47;15.70;96.50
27567;DHT22;15006;48.584;9.186;2022-08-19T02:48:44;15.70;96.00
27567;DHT22;15006;48.584;9.186;2022-08-19T02:51:19;15.70;95.80
27567;DHT22;15006;48.584;9.186;2022-08-19T02:53:56;15.70;96.30
27567;DHT22;15006;48.584;9.186;2022-08-19T02:56:23;15.60;95.90
27567;DHT22;15006;48.584;9.186;2022-08-19T02:58:54;15.60;96.10
27567;DHT22;15006;48.584;9.186;2022-08-19T03:01:26;15.60;96.20
27567;DHT22;15006;48.584;9.186;2022-08-19T03:03:55;15.60;96.60
27567;DHT22;15006;48.584;9.186;2022-08-19T03:06:22;15.60;96.40
27567;DHT22;15006;48.584;9.186;2022-08-19T03:08:50;15.60;96.40
27567;DHT22;15006;48.584;9.186;2022-08-19T03:13:44;15.60;96.70
27567;DHT22;15006;48.584;9.186;2022-08-19T03:16:12;15.60;96.60
27567;DHT22;15006;48.584;9.186;2022-08-19T03:18:38;15.70;96.50
27567;DHT22;15006;48.584;9.186;2022-08-19T03:21:05;15.70;96.30
27567;DHT22;15006;48.584;9.186;2022-08-19T03:23:32;15.70;96.10
27567;DHT22;15006;48.584;9.186;2022-08-19T03:25:58;15.70;96.20
27567;DHT22;15006;48.584;9.186;2022-08-19T03:28:25;15.70;96.10
27567;DHT22;15006;48.584;9.186;2022-08-19T03:31:00;15.80;96.30
27567;DHT22;15006;48.584;9.186;2022-08-19T03:33:46;15.80;96.80
27567;DHT22;15006;48.584;9.186;2022-08-19T03:36:22;15.80;96.30
27567;DHT22;15006;48.584;9.186;2022-08-19T03:38:54;15.80;96.70
27567;DHT22;15006;48.584;9.186;2022-08-19T03:41:24;15.80;96.50
27567;DHT22;15006;48.584;9.186;2022-08-19T03:43:56;15.80;96.60
27567;DHT22;15006;48.584;9.186;2022-08-19T03:46:25;15.90;96.50
27567;DHT22;15006;48.584;9.186;2022-08-19T03:48:55;15.90;96.80
27567;DHT22;15006;48.584;9.186;2022-08-19T03:51:28;15.90;96.70
27567;DHT22;15006;48.584;9.186;2022-08-19T03:53:58;15.90;96.90
27567;DHT22;15006;48.584;9.186;2022-08-19T03:56:25;15.90;96.80
27567;DHT22;15006;48.584;9.186;2022-08-19T03:58:57;15.90;96.80
27567;DHT22;15006;48.584;9.186;2022-08-19T04:01:27;15.90;97.00
27567;DHT22;15006;48.584;9.186;2022-08-19T04:03:55;15.90;97.10
27567;DHT22;15006;48.584;9.186;2022-08-19T04:06:30;15.90;97.20
27567;DHT22;15006;48.584;9.186;2022-08-19T04:08:59;15.90;97.60
27567;DHT22;15006;48.584;9.186;2022-08-19T04:11:33;15.90;97.20
27567;DHT22;15006;48.584;9.186;2022-08-19T04:14:01;15.90;97.50
27567;DHT22;15006;48.584;9.186;2022-08-19T04:16:28;15.90;97.10
27567;DHT22;15006;48.584;9.186;2022-08-19T04:18:55;15.90;97.30
27567;DHT22;15006;48.584;9.186;2022-08-19T04:21:24;15.90;97.30
27567;DHT22;15006;48.584;9.186;2022-08-19T04:23:51;15.90;97.40
27567;DHT22;15006;48.584;9.186;2022-08-19T04:26:21;15.80;97.20
27567;DHT22;15006;48.584;9.186;2022-08-19T04:28:50;15.80;97.30
27567;DHT22;15006;48.584;9.186;2022-08-19T04:31:22;15.80;97.20
27567;DHT22;15006;48.584;9.186;2022-08-19T04:33:56;15.80;97.70
27567;DHT22;15006;48.584;9.186;2022-08-19T04:36:28;15.80;97.70
27567;DHT22;15006;48.584;9.186;2022-08-19T04:39:05;15.80;97.50
27567;DHT22;15006;48.584;9.186;2022-08-19T04:41:37;15.80;97.50
27567;DHT22;15006;48.584;9.186;2022-08-19T04:44:22;15.80;97.50
27567;DHT22;15006;48.584;9.186;2022-08-19T04:46:49;15.80;97.30
27567;DHT22;15006;48.584;9.186;2022-08-19T04:49:18;15.80;97.30
27567;DHT22;15006;48.584;9.186;2022-08-19T04:51:48;15.80;96.80
27567;DHT22;15006;48.584;9.186;2022-08-19T04:54:16;15.70;96.50
27567;DHT22;15006;48.584;9.186;2022-08-19T04:56:43;15.70;96.70
27567;DHT22;15006;48.584;9.186;2022-08-19T04:59:09;15.70;96.50
27567;DHT22;15006;48.584;9.186;2022-08-19T05:01:36;15.70;96.40
27567;DHT22;15006;48.584;9.186;2022-08-19T05:04:05;15.80;96.40
27567;DHT22;15006;48.584;9.186;2022-08-19T05:06:33;15.80;96.80
27567;DHT22;15006;48.584;9.186;2022-08-19T05:09:00;15.80;96.50
27567;DHT22;15006;48.584;9.186;2022-08-19T05:11:31;15.80;96.50
27567;DHT22;15006;48.584;9.186;2022-08-19T05:13:59;15.80;96.40
27567;DHT22;15006;48.584;9.186;2022-08-19T05:16:27;15.90;95.90
27567;DHT22;15006;48.584;9.186;2022-08-19T05:18:55;15.90;96.00
27567;DHT22;15006;48.584;9.186;2022-08-19T05:21:41;15.90;96.20
27567;DHT22;15006;48.584;9.186;2022-08-19T05:24:27;15.90;96.00
27567;DHT22;15006;48.584;9.186;2022-08-19T05:26:54;15.90;95.80
27567;DHT22;15006;48.584;9.186;2022-08-19T05:29:24;16.00;96.00
27567;DHT22;15006;48.584;9.186;2022-08-19T05:31:53;16.00;95.80
27567;DHT22;15006;48.584;9.186;2022-08-19T05:34:23;16.10;95.70
27567;DHT22;15006;48.584;9.186;2022-08-19T05:36:55;16.00;95.50
27567;DHT22;15006;48.584;9.186;2022-08-19T05:39:27;16.00;95.10
27567;DHT22;15006;48.584;9.186;2022-08-19T05:41:57;16.10;95.00
27567;DHT22;15006;48.584;9.186;2022-08-19T05:44:26;16.00;95.10
27567;DHT22;15006;48.584;9.186;2022-08-19T05:46:57;16.10;94.90
27567;DHT22;15006;48.584;9.186;2022-08-19T05:49:25;16.10;95.10
27567;DHT22;15006;48.584;9.186;2022-08-19T05:51:53;16.10;95.00
27567;DHT22;15006;48.584;9.186;2022-08-19T05:54:21;16.10;94.90
27567;DHT22;15006;48.584;9.186;2022-08-19T05:56:49;16.10;94.90
27567;DHT22;15006;48.584;9.186;2022-08-19T05:59:17;16.10;94.80
27567;DHT22;15006;48.584;9.186;2022-08-19T06:01:45;16.10;94.80
27567;DHT22;15006;48.584;9.186;2022-08-19T06:04:13;16.20;94.80
27567;DHT22;15006;48.584;9.186;2022-08-19T06:06:39;16.20;94.80
27567;DHT22;15006;48.584;9.186;2022-08-19T06:09:06;16.20;94.60
27567;DHT22;15006;48.584;9.186;2022-08-19T06:11:40;16.20;94.80
27567;DHT22;15006;48.584;9.186;2022-08-19T06:14:11;16.20;95.00
27567;DHT22;15006;48.584;9.186;2022-08-19T06:16:40;16.30;95.00
27567;DHT22;15006;48.584;9.186;2022-08-19T06:19:11;16.30;94.90
27567;DHT22;15006;48.584;9.186;2022-08-19T06:21:43;16.30;95.00
27567;DHT22;15006;48.584;9.186;2022-08-19T06:24:12;16.40;94.90
27567;DHT22;15006;48.584;9.186;2022-08-19T06:26:43;16.40;94.90
27567;DHT22;15006;48.584;9.186;2022-08-19T06:29:13;16.40;95.00
27567;DHT22;15006;48.584;9.186;2022-08-19T06:34:12;16.50;95.40
27567;DHT22;15006;48.584;9.186;2022-08-19T06:36:44;16.60;95.60
27567;DHT22;15006;48.584;9.186;2022-08-19T06:39:18;16.60;95.20
27567;DHT22;15006;48.584;9.186;2022-08-19T06:41:53;16.60;94.90
27567;DHT22;15006;48.584;9.186;2022-08-19T06:44:23;16.60;94.50
27567;DHT22;15006;48.584;9.186;2022-08-19T06:46:55;16.70;94.30
27567;DHT22;15006;48.584;9.186;2022-08-19T06:49:26;16.70;94.40
27567;DHT22;15006;48.584;9.186;2022-08-19T06:51:57;16.60;94.30
27567;DHT22;15006;48.584;9.186;2022-08-19T06:54:25;16.70;94.00
27567;DHT22;15006;48.584;9.186;2022-08-19T06:56:56;16.60;94.00
27567;DHT22;15006;48.584;9.186;2022-08-19T06:59:33;16.70;94.20
27567;DHT22;15006;48.584;9.186;2022-08-19T07:02:06;16.60;94.30
27567;DHT22;15006;48.584;9.186;2022-08-19T07:04:34;16.60;94.20
27567;DHT22;15006;48.584;9.186;2022-08-19T07:07:13;16.70;94.30
27567;DHT22;15006;48.584;9.186;2022-08-19T07:09:44;16.70;94.50
27567;DHT22;15006;48.584;9.186;2022-08-19T07:12:12;16.70;94.20
27567;DHT22;15006;48.584;9.186;2022-08-19T07:14:43;16.60;94.40
27567;DHT22;15006;48.584;9.186;2022-08-19T07:17:12;16.70;94.40
27567;DHT22;15006;48.584;9.186;2022-08-19T07:19:40;16.70;94.20
27567;DHT22;15006;48.584;9.186;2022-08-19T07:22:07;16.70;94.30
27567;DHT22;15006;48.584;9.186;2022-08-19T07:24:35;16.70;94.30
27567;DHT22;15006;48.584;9.186;2022-08-19T07:27:05;16.70;94.10
27567;DHT22;15006;48.584;9.186;2022-08-19T07:29:37;16.70;94.20
27567;DHT22;15006;48.584;9.186;2022-08-19T07:32:10;16.60;94.00
27567;DHT22;15006;48.584;9.186;2022-08-19T07:34:42;16.60;93.70
27567;DHT22;15006;48.584;9.186;2022-08-19T07:37:17;16.60;93.70
27567;DHT22;15006;48.584;9.186;2022-08-19T07:39:46;16.60;93.80
27567;DHT22;15006;48.584;9.186;2022-08-19T07:42:19;16.60;94.10
27567;DHT22;15006;48.584;9.186;2022-08-19T07:44:47;16.50;94.40
27567;DHT22;15006;48.584;9.186;2022-08-19T07:47:20;16.50;94.70
27567;DHT22;15006;48.584;9.186;2022-08-19T07:49:46;16.60;95.00
27567;DHT22;15006;48.584;9.186;2022-08-19T07:52:13;16.60;95.00
27567;DHT22;15006;48.584;9.186;2022-08-19T07:54:39;16.60;95.20
27567;DHT22;15006;48.584;9.186;2022-08-19T07:57:07;16.50;95.40
27567;DHT22;15006;48.584;9.186;2022-08-19T07:59:34;16.50;95.40
27567;DHT22;15006;48.584;9.186;2022-08-19T08:02:00;16.50;95.50
27567;DHT22;15006;48.584;9.186;2022-08-19T08:04:29;16.50;95.70
27567;DHT22;15006;48.584;9.186;2022-08-19T08:07:15;16.50;95.80
27567;DHT22;15006;48.584;9.186;2022-08-19T08:10:00;16.50;96.00
27567;DHT22;15006;48.584;9.186;2022-08-19T08:12:37;16.60;96.10
27567;DHT22;15006;48.584;9.186;2022-08-19T08:15:11;16.60;96.50
27567;DHT22;15006;48.584;9.186;2022-08-19T08:17:42;16.60;96.80
27567;DHT22;15006;48.584;9.186;2022-08-19T08:20:09;16.60;96.80
27567;DHT22;15006;48.584;9.186;2022-08-19T08:22:36;16.60;97.00
27567;DHT22;15006;48.584;9.186;2022-08-19T08:25:40;16.50;96.80
27567;DHT22;15006;48.584;9.186;2022-08-19T08:28:06;16.60;97.10
27567;DHT22;15006;48.584;9.186;2022-08-19T08:30:34;16.60;97.30
27567;DHT22;15006;48.584;9.186;2022-08-19T08:33:02;16.60;97.30
27567;DHT22;15006;48.584;9.186;2022-08-19T08:35:28;16.60;97.60
27567;DHT22;15006;48.584;9.186;2022-08-19T08:37:57;16.60;97.60
27567;DHT22;15006;48.584;9.186;2022-08-19T08:40:47;16.60;97.40
27567;DHT22;15006;48.584;9.186;2022-08-19T08:43:28;16.60;97.30
27567;DHT22;15006;48.584;9.186;2022-08-19T08:46:04;16.60;98.00
27567;DHT22;15006;48.584;9.186;2022-08-19T08:52:04;16.60;98.20
27567;DHT22;15006;48.584;9.186;2022-08-19T08:54:47;16.60;98.00
27567;DHT22;15006;48.584;9.186;2022-08-19T08:57:19;16.60;98.50
27567;DHT22;15006;48.584;9.186;2022-08-19T08:59:57;16.60;98.50
27567;DHT22;15006;48.584;9.186;2022-08-19T09:02:27;16.60;98.30
27567;DHT22;15006;48.584;9.186;2022-08-19T09:04:54;16.60;98.20
27567;DHT22;15006;48.584;9.186;2022-08-19T09:10:32;16.50;98.20
27567;DHT22;15006;48.584;9.186;2022-08-19T09:15:55;16.50;98.80
27567;DHT22;15006;48.584;9.186;2022-08-19T09:18:25;16.60;99.30
27567;DHT22;15006;48.584;9.186;2022-08-19T09:20:51;16.60;99.30
27567;DHT22;15006;48.584;9.186;2022-08-19T09:23:17;16.60;99.60
27567;DHT22;15006;48.584;9.186;2022-08-19T09:25:43;16.60;99.90
27567;DHT22;15006;48.584;9.186;2022-08-19T09:28:10;16.60;99.90
27567;DHT22;15006;48.584;9.186;2022-08-19T09:30:40;16.70;99.90
27567;DHT22;15006;48.584;9.186;2022-08-19T09:33:07;16.60;99.90
27567;DHT22;15006;48.584;9.186;2022-08-19T09:35:34;16.70;99.90
27567;DHT22;15006;48.584;9.186;2022-08-19T09:38:01;16.70;99.90
27567;DHT22;15006;48.584;9.186;2022-08-19T09:40:28;16.70;99.90
27567;DHT22;15006;48.584;9.186;2022-08-19T09:42:57;16.70;99.90
27567;DHT22;15006;48.584;9.186;2022-08-19T09:45:28;16.80;99.90
27567;DHT22;15006;48.584;9.186;2022-08-19T09:47:56;16.80;99.90
27567;DHT22;15006;48.584;9.186;2022-08-19T09:50:23;16.80;99.90
27567;DHT22;15006;48.584;9.186;2022-08-19T09:52:49;16.80;99.90
27567;DHT22;15006;48.584;9.186;2022-08-19T09:55:18;16.80;99.90
27567;DHT22;15006;48.584;9.186;2022-08-19T09:57:47;16.80;99.90
27567;DHT22;15006;48.584;9.186;2022-08-19T10:00:13;16.90;99.90
27567;DHT22;15006;48.584;9.186;2022-08-19T10:02:39;16.90;99.90
27567;DHT22;15006;48.584;9.186;2022-08-19T10:05:05;16.90;99.90
27567;DHT22;15006;48.584;9.186;2022-08-19T10:07:50;16.90;99.90
27567;DHT22;15006;48.584;9.186;2022-08-19T10:10:17;16.90;99.90
27567;DHT22;15006;48.584;9.186;2022-08-19T10:12:43;16.90;99.90
27567;DHT22;15006;48.584;9.186;2022-08-19T10:15:13;16.90;99.90
27567;DHT22;15006;48.584;9.186;2022-08-19T10:17:39;16.90;99.90
27567;DHT22;15006;48.584;9.186;2022-08-19T10:20:05;16.80;99.90
27567;DHT22;15006;48.584;9.186;2022-08-19T10:22:32;16.80;99.90
27567;DHT22;15006;48.584;9.186;2022-08-19T10:25:01;16.70;99.90
27567;DHT22;15006;48.584;9.186;2022-08-19T10:27:27;16.70;99.90
27567;DHT22;15006;48.584;9.186;2022-08-19T10:29:53;16.70;99.90
27567;DHT22;15006;48.584;9.186;2022-08-19T10:32:19;16.60;99.90
27567;DHT22;15006;48.584;9.186;2022-08-19T10:34:47;16.60;99.90
27567;DHT22;15006;48.584;9.186;2022-08-19T10:37:15;16.50;99.90
27567;DHT22;15006;48.584;9.186;2022-08-19T10:39:45;16.50;99.90
27567;DHT22;15006;48.584;9.186;2022-08-19T10:42:14;16.50;99.90
27567;DHT22;15006;48.584;9.186;2022-08-19T10:44:49;16.50;99.90
27567;DHT22;15006;48.584;9.186;2022-08-19T10:47:24;16.40;99.90
27567;DHT22;15006;48.584;9.186;2022-08-19T10:49:56;16.40;99.90
27567;DHT22;15006;48.584;9.186;2022-08-19T10:52:42;16.40;99.90
27567;DHT22;15006;48.584;9.186;2022-08-19T10:55:11;16.40;99.90
27567;DHT22;15006;48.584;9.186;2022-08-19T10:57:56;16.30;99.90
27567;DHT22;15006;48.584;9.186;2022-08-19T11:00:24;16.30;99.90
27567;DHT22;15006;48.584;9.186;2022-08-19T11:02:51;16.30;99.90
27567;DHT22;15006;48.584;9.186;2022-08-19T11:05:18;16.30;99.90
27567;DHT22;15006;48.584;9.186;2022-08-19T11:07:45;16.20;99.90
27567;DHT22;15006;48.584;9.186;2022-08-19T11:10:14;16.30;99.90
27567;DHT22;15006;48.584;9.186;2022-08-19T11:12:40;16.30;99.90
27567;DHT22;15006;48.584;9.186;2022-08-19T11:15:10;16.30;99.90
27567;DHT22;15006;48.584;9.186;2022-08-19T11:17:39;16.20;99.90
27567;DHT22;15006;48.584;9.186;2022-08-19T11:20:07;16.20;99.90
27567;DHT22;15006;48.584;9.186;2022-08-19T11:22:33;16.20;99.90
27567;DHT22;15006;48.584;9.186;2022-08-19T11:25:00;16.20;99.90
27567;DHT22;15006;48.584;9.186;2022-08-19T11:27:26;16.20;99.90
27567;DHT22;15006;48.584;9.186;2022-08-19T11:29:57;16.20;99.90
27567;DHT22;15006;48.584;9.186;2022-08-19T11:32:23;16.20;99.90
27567;DHT22;15006;48.584;9.186;2022-08-19T11:34:50;16.10;99.90
27567;DHT22;15006;48.584;9.186;2022-08-19T11:37:16;16.10;99.90
27567;DHT22;15006;48.584;9.186;2022-08-19T11:39:42;16.10;99.90
27567;DHT22;15006;48.584;9.186;2022-08-19T11:42:07;16.10;99.90
27567;DHT22;15006;48.584;9.186;2022-08-19T11:44:52;16.10;99.90
27567;DHT22;15006;48.584;9.186;2022-08-19T11:47:21;16.10;99.90
27567;DHT22;15006;48.584;9.186;2022-08-19T11:50:01;16.00;99.90
27567;DHT22;15006;48.584;9.186;2022-08-19T11:52:33;16.10;99.90
27567;DHT22;15006;48.584;9.186;2022-08-19T11:54:59;16.00;99.90
27567;DHT22;15006;48.584;9.186;2022-08-19T11:57:27;16.00;99.90
27567;DHT22;15006;48.584;9.186;2022-08-19T11:59:53;16.00;99.90
27567;DHT22;15006;48.584;9.186;2022-08-19T12:02:19;16.00;99.90
27567;DHT22;15006;48.584;9.186;2022-08-19T12:04:45;16.00;99.90
27567;DHT22;15006;48.584;9.186;2022-08-19T12:07:11;16.10;99.90
27567;DHT22;15006;48.584;9.186;2022-08-19T12:09:37;16.10;99.90
27567;DHT22;15006;48.584;9.186;2022-08-19T12:12:05;16.10;99.90
27567;DHT22;15006;48.584;9.186;2022-08-19T12:14:31;16.20;99.90
27567;DHT22;15006;48.584;9.186;2022-08-19T12:16:58;16.20;99.90
27567;DHT22;15006;48.584;9.186;2022-08-19T12:19:24;16.20;99.90
27567;DHT22;15006;48.584;9.186;2022-08-19T12:21:51;16.20;99.90
27567;DHT22;15006;48.584;9.186;2022-08-19T12:24:18;16.20;99.90
27567;DHT22;15006;48.584;9.186;2022-08-19T12:26:49;16.30;99.90
27567;DHT22;15006;48.584;9.186;2022-08-19T12:29:22;16.30;99.90
27567;DHT22;15006;48.584;9.186;2022-08-19T12:31:59;16.30;99.90
27567;DHT22;15006;48.584;9.186;2022-08-19T12:34:37;16.30;99.90
27567;DHT22;15006;48.584;9.186;2022-08-19T12:37:10;16.30;99.90
27567;DHT22;15006;48.584;9.186;2022-08-19T12:39:39;16.40;99.90
27567;DHT22;15006;48.584;9.186;2022-08-19T12:42:07;16.40;99.90
27567;DHT22;15006;48.584;9.186;2022-08-19T12:44:36;16.40;99.90
27567;DHT22;15006;48.584;9.186;2022-08-19T12:47:05;16.50;99.90
27567;DHT22;15006;48.584;9.186;2022-08-19T12:49:32;16.50;99.90
27567;DHT22;15006;48.584;9.186;2022-08-19T12:52:07;16.50;99.90
27567;DHT22;15006;48.584;9.186;2022-08-19T12:54:35;16.50;99.90
27567;DHT22;15006;48.584;9.186;2022-08-19T12:57:10;16.50;99.90
27567;DHT22;15006;48.584;9.186;2022-08-19T12:59:38;16.50;99.90
27567;DHT22;15006;48.584;9.186;2022-08-19T13:02:06;16.50;99.90
27567;DHT22;15006;48.584;9.186;2022-08-19T13:04:33;16.50;99.90
27567;DHT22;15006;48.584;9.186;2022-08-19T13:07:02;16.50;99.90
27567;DHT22;15006;48.584;9.186;2022-08-19T13:09:29;16.50;99.90
27567;DHT22;15006;48.584;9.186;2022-08-19T13:12:19;16.50;99.90
27567;DHT22;15006;48.584;9.186;2022-08-19T13:14:45;16.50;99.90
27567;DHT22;15006;48.584;9.186;2022-08-19T13:17:28;16.50;99.90
27567;DHT22;15006;48.584;9.186;2022-08-19T13:20:00;16.50;99.90
27567;DHT22;15006;48.584;9.186;2022-08-19T13:22:30;16.50;99.90
27567;DHT22;15006;48.584;9.186;2022-08-19T13:25:04;16.50;99.90
27567;DHT22;15006;48.584;9.186;2022-08-19T13:27:43;16.50;99.90
27567;DHT22;15006;48.584;9.186;2022-08-19T13:30:24;16.60;99.90
27567;DHT22;15006;48.584;9.186;2022-08-19T13:33:09;16.60;99.90
27567;DHT22;15006;48.584;9.186;2022-08-19T13:35:50;16.60;99.90
27567;DHT22;15006;48.584;9.186;2022-08-19T13:38:22;16.60;99.90
27567;DHT22;15006;48.584;9.186;2022-08-19T13:40:50;16.60;99.90
27567;DHT22;15006;48.584;9.186;2022-08-19T13:43:18;16.60;99.90
27567;DHT22;15006;48.584;9.186;2022-08-19T13:45:49;16.60;99.90
27567;DHT22;15006;48.584;9.186;2022-08-19T13:48:21;16.60;99.90
27567;DHT22;15006;48.584;9.186;2022-08-19T13:50:48;16.50;99.90
27567;DHT22;15006;48.584;9.186;2022-08-19T13:53:14;16.50;99.90
27567;DHT22;15006;48.584;9.186;2022-08-19T13:55:42;16.50;99.90
27567;DHT22;15006;48.584;9.186;2022-08-19T13:58:10;16.50;99.90
27567;DHT22;15006;48.584;9.186;2022-08-19T14:00:39;16.50;99.90
27567;DHT22;15006;48.584;9.186;2022-08-19T14:03:06;16.40;99.90
27567;DHT22;15006;48.584;9.186;2022-08-19T14:05:34;16.40;99.90
27567;DHT22;15006;48.584;9.186;2022-08-19T14:08:01;16.40;99.90
27567;DHT22;15006;48.584;9.186;2022-08-19T14:10:28;16.40;99.90
27567;DHT22;15006;48.584;9.186;2022-08-19T14:12:57;16.40;99.90
27567;DHT22;15006;48.584;9.186;2022-08-19T14:15:26;16.40;99.90
27567;DHT22;15006;48.584;9.186;2022-08-19T14:17:54;16.40;99.90
27567;DHT22;15006;48.584;9.186;2022-08-19T14:20:20;16.40;99.90
27567;DHT22;15006;48.584;9.186;2022-08-19T14:22:47;16.40;99.90
27567;DHT22;15006;48.584;9.186;2022-08-19T14:25:17;16.40;99.90
27567;DHT22;15006;48.584;9.186;2022-08-19T14:27:46;16.50;99.90
27567;DHT22;15006;48.584;9.186;2022-08-19T14:30:17;16.50;99.90
27567;DHT22;15006;48.584;9.186;2022-08-19T14:32:46;16.50;99.90
27567;DHT22;15006;48.584;9.186;2022-08-19T14:35:14;16.50;99.90
27567;DHT22;15006;48.584;9.186;2022-08-19T14:37:42;16.50;99.90
27567;DHT22;15006;48.584;9.186;2022-08-19T14:40:10;16.50;99.90
27567;DHT22;15006;48.584;9.186;2022-08-19T14:42:37;16.50;99.90
27567;DHT22;15006;48.584;9.186;2022-08-19T14:45:03;16.50;99.90
27567;DHT22;15006;48.584;9.186;2022-08-19T14:47:33;16.50;99.90
27567;DHT22;15006;48.584;9.186;2022-08-19T14:49:59;16.50;99.90
27567;DHT22;15006;48.584;9.186;2022-08-19T14:52:25;16.50;99.90
27567;DHT22;15006;48.584;9.186;2022-08-19T14:54:51;16.50;99.90
27567;DHT22;15006;48.584;9.186;2022-08-19T14:57:17;16.50;99.90
27567;DHT22;15006;48.584;9.186;2022-08-19T14:59:43;16.50;99.90
27567;DHT22;15006;48.584;9.186;2022-08-19T15:02:10;16.50;99.90
27567;DHT22;15006;48.584;9.186;2022-08-19T15:04:37;16.50;99.90
27567;DHT22;15006;48.584;9.186;2022-08-19T15:07:04;16.60;99.90
27567;DHT22;15006;48.584;9.186;2022-08-19T15:09:31;16.60;99.90
27567;DHT22;15006;48.584;9.186;2022-08-19T15:11:58;16.60;99.90
27567;DHT22;15006;48.584;9.186;2022-08-19T15:14:26;16.60;99.90
27567;DHT22;15006;48.584;9.186;2022-08-19T15:16:52;16.60;99.90
27567;DHT22;15006;48.584;9.186;2022-08-19T15:19:18;16.70;99.90
27567;DHT22;15006;48.584;9.186;2022-08-19T15:21:45;16.70;99.90
27567;DHT22;15006;48.584;9.186;2022-08-19T15:24:11;16.80;99.90
27567;DHT22;15006;48.584;9.186;2022-08-19T15:26:37;16.80;99.90
27567;DHT22;15006;48.584;9.186;2022-08-19T15:29:04;16.90;99.90
27567;DHT22;15006;48.584;9.186;2022-08-19T15:31:31;17.00;99.90
27567;DHT22;15006;48.584;9.186;2022-08-19T15:34:01;17.00;99.90
27567;DHT22;15006;48.584;9.186;2022-08-19T15:36:28;17.10;99.90
27567;DHT22;15006;48.584;9.186;2022-08-19T15:38:55;17.10;99.90
27567;DHT22;15006;48.584;9.186;2022-08-19T15:41:26;17.20;99.90
27567;DHT22;15006;48.584;9.186;2022-08-19T15:43:59;17.20;99.90
27567;DHT22;15006;48.584;9.186;2022-08-19T15:46:31;17.30;99.90
27567;DHT22;15006;48.584;9.186;2022-08-19T15:48:59;17.30;99.90
27567;DHT22;15006;48.584;9.186;2022-08-19T15:51:26;17.30;99.90
27567;DHT22;15006;48.584;9.186;2022-08-19T15:53:55;17.40;99.90
27567;DHT22;15006;48.584;9.186;2022-08-19T15:56:22;17.50;99.90
27567;DHT22;15006;48.584;9.186;2022-08-19T15:58:48;17.50;99.90
27567;DHT22;15006;48.584;9.186;2022-08-19T16:01:32;17.60;99.90
27567;DHT22;15006;48.584;9.186;2022-08-19T16:03:59;17.60;99.90
27567;DHT22;15006;48.584;9.186;2022-08-19T16:06:50;17.70;99.90